createdAt,value
2019-03-11T00:02:22.577Z,6.72
2019-03-11T00:04:56.018Z,1.52
2019-03-11T00:07:29.515Z,1.70
2019-03-11T00:10:03.334Z,0.95
2019-03-11T00:12:37.694Z,0.90
2019-03-11T00:15:10.901Z,0.90
2019-03-11T00:17:45.017Z,1.00
2019-03-11T00:20:18.584Z,2.75
2019-03-11T00:22:52.765Z,0.80
2019-03-11T00:25:26.395Z,2.22
2019-03-11T00:28:00.403Z,2.15
2019-03-11T00:30:34.286Z,1.50
2019-03-11T00:33:08.168Z,4.00
2019-03-11T00:35:42.087Z,1.40
2019-03-11T00:38:15.590Z,1.70
2019-03-11T00:40:48.977Z,2.08
2019-03-11T00:43:22.891Z,2.47
2019-03-11T00:45:56.385Z,1.10
2019-03-11T00:48:30.299Z,0.98
2019-03-11T00:51:03.288Z,2.35
2019-03-11T00:53:36.538Z,2.12
2019-03-11T00:56:10.101Z,1.57
2019-03-11T00:58:44.198Z,2.10
2019-03-11T01:01:17.814Z,1.30
2019-03-11T01:03:50.802Z,1.42
2019-03-11T01:06:24.686Z,1.50
2019-03-11T01:08:58.476Z,1.85
2019-03-11T01:11:32.387Z,1.92
2019-03-11T01:14:06.009Z,1.50
2019-03-11T01:16:40.033Z,1.60
2019-03-11T01:19:14.025Z,1.75
2019-03-11T01:21:47.015Z,3.10
2019-03-11T01:24:20.631Z,1.80
2019-03-11T01:26:54.629Z,1.52
2019-03-11T01:29:28.126Z,2.17
2019-03-11T01:32:02.024Z,1.92
2019-03-11T01:34:34.885Z,1.47
2019-03-11T01:37:08.554Z,1.95
2019-03-11T01:39:42.645Z,1.77
2019-03-11T01:42:16.404Z,2.08
2019-03-11T01:44:49.994Z,2.27
2019-03-11T01:47:24.078Z,3.80
2019-03-11T01:49:58.029Z,1.70
2019-03-11T01:52:32.073Z,2.80
2019-03-11T01:55:05.230Z,2.30
2019-03-11T01:57:39.175Z,2.42
2019-03-11T02:00:14.789Z,2.95
2019-03-11T02:02:48.396Z,2.42
2019-03-11T02:05:21.949Z,1.87
2019-03-11T02:07:55.530Z,1.52
2019-03-11T02:10:30.003Z,2.60
2019-03-11T02:13:03.569Z,1.72
2019-03-11T02:15:37.570Z,2.45
2019-03-11T02:18:11.265Z,4.92
2019-03-11T02:20:44.251Z,2.72
2019-03-11T02:23:17.877Z,2.67
2019-03-11T02:25:52.493Z,2.67
2019-03-11T02:28:26.500Z,3.52
2019-03-11T02:31:00.524Z,2.80
2019-03-11T02:33:34.517Z,4.00
2019-03-11T02:36:08.024Z,7.42
2019-03-11T02:38:43.872Z,3.47
2019-03-11T02:41:17.453Z,4.55
2019-03-11T02:43:51.382Z,4.42
2019-03-11T02:46:25.411Z,3.87
2019-03-11T02:48:58.917Z,2.98
2019-03-11T02:51:32.389Z,3.00
2019-03-11T02:54:05.987Z,4.85
2019-03-11T02:56:39.902Z,3.87
2019-03-11T02:59:14.435Z,2.77
2019-03-11T03:02:12.255Z,4.45
2019-03-11T03:04:48.821Z,2.12
2019-03-11T03:07:22.426Z,4.30
2019-03-11T03:09:56.496Z,3.67
2019-03-11T03:12:30.784Z,4.78
2019-03-11T03:15:04.927Z,3.52
2019-03-11T03:17:38.705Z,3.62
2019-03-11T03:20:11.907Z,4.17
2019-03-11T03:22:45.417Z,4.72
2019-03-11T03:25:32.866Z,4.22
2019-03-11T03:27:54.803Z,3.33
2019-03-11T03:30:28.955Z,3.80
2019-03-11T03:33:01.722Z,6.03
2019-03-11T03:35:35.270Z,3.85
2019-03-11T03:38:08.772Z,3.37
2019-03-11T03:40:42.971Z,3.37
2019-03-11T03:43:16.356Z,3.30
2019-03-11T03:45:49.869Z,4.15
2019-03-11T03:48:23.856Z,4.62
2019-03-11T03:50:57.691Z,5.62
2019-03-11T03:53:31.186Z,3.30
2019-03-11T03:56:04.383Z,3.92
2019-03-11T03:58:38.305Z,7.00
2019-03-11T04:01:12.313Z,6.55
2019-03-11T04:03:46.318Z,5.03
2019-03-11T04:06:19.924Z,6.80
2019-03-11T04:08:53.809Z,5.22
2019-03-11T04:11:27.742Z,4.28
2019-03-11T04:14:01.767Z,7.65
2019-03-11T04:16:35.631Z,5.20
2019-03-11T04:19:09.578Z,4.85
2019-03-11T04:21:43.079Z,4.62
2019-03-11T04:24:16.987Z,7.33
2019-03-11T04:26:56.458Z,4.72
2019-03-11T04:29:30.071Z,4.42
2019-03-11T04:32:04.013Z,3.20
2019-03-11T04:34:37.810Z,7.47
2019-03-11T04:37:11.021Z,7.80
2019-03-11T04:39:45.064Z,7.25
2019-03-11T04:42:19.493Z,8.13
2019-03-11T04:44:53.096Z,6.05
2019-03-11T04:47:27.286Z,3.67
2019-03-11T04:50:00.895Z,4.92
2019-03-11T04:52:34.742Z,5.25
2019-03-11T04:55:07.869Z,4.03
2019-03-11T04:57:46.610Z,5.70
2019-03-11T05:00:22.174Z,6.28
2019-03-11T05:02:56.247Z,4.97
2019-03-11T05:05:30.248Z,4.33
2019-03-11T05:08:03.426Z,5.67
2019-03-11T05:10:37.464Z,4.78
2019-03-11T05:13:10.400Z,6.10
2019-03-11T05:15:44.360Z,3.35
2019-03-11T05:18:18.283Z,5.80
2019-03-11T05:20:51.652Z,3.08
2019-03-11T05:23:25.164Z,6.10
2019-03-11T05:25:59.185Z,5.75
2019-03-11T05:28:33.195Z,7.08
2019-03-11T05:31:06.868Z,7.90
2019-03-11T05:33:40.391Z,6.05
2019-03-11T05:36:14.060Z,6.53
2019-03-11T05:38:47.086Z,4.72
2019-03-11T05:41:21.085Z,4.08
2019-03-11T05:43:54.220Z,2.83
2019-03-11T05:46:28.203Z,5.25
2019-03-11T05:49:01.679Z,3.65
2019-03-11T05:51:35.369Z,9.80
2019-03-11T05:54:08.884Z,7.90
2019-03-11T05:56:42.071Z,7.40
2019-03-11T05:59:16.017Z,7.67
2019-03-11T06:01:51.423Z,10.32
2019-03-11T06:04:25.865Z,7.83
2019-03-11T06:06:59.772Z,7.90
2019-03-11T06:09:33.458Z,7.70
2019-03-11T06:12:07.895Z,6.55
2019-03-11T06:14:41.768Z,10.23
2019-03-11T06:17:15.802Z,8.25
2019-03-11T06:19:51.102Z,10.08
2019-03-11T06:22:27.240Z,9.13
2019-03-11T06:25:00.871Z,8.45
2019-03-11T06:27:34.962Z,11.60
2019-03-11T06:30:08.990Z,12.60
2019-03-11T06:32:42.552Z,8.85
2019-03-11T06:35:16.117Z,10.18
2019-03-11T06:37:50.159Z,11.93
2019-03-11T06:40:23.761Z,13.38
2019-03-11T06:42:57.775Z,10.45
2019-03-11T06:45:31.359Z,8.55
2019-03-11T06:48:05.548Z,10.95
2019-03-11T06:50:39.282Z,10.93
2019-03-11T06:53:13.296Z,8.73
2019-03-11T06:55:47.318Z,9.90
2019-03-11T06:58:21.072Z,8.63
2019-03-11T07:00:55.035Z,7.65
2019-03-11T07:03:28.532Z,8.83
2019-03-11T07:06:02.154Z,8.45
2019-03-11T07:08:35.732Z,6.30
2019-03-11T07:11:10.337Z,7.08
2019-03-11T07:13:44.469Z,5.30
2019-03-11T07:16:18.383Z,5.70
2019-03-11T07:18:51.828Z,5.45
2019-03-11T07:21:25.586Z,4.75
2019-03-11T07:24:00.324Z,5.83
2019-03-11T07:26:34.209Z,4.83
2019-03-11T07:29:07.785Z,6.10
2019-03-11T07:31:40.975Z,4.75
2019-03-11T07:34:15.007Z,5.15
2019-03-11T07:36:48.533Z,5.75
2019-03-11T07:39:22.541Z,7.22
2019-03-11T07:41:56.451Z,6.05
2019-03-11T07:44:30.646Z,10.50
2019-03-11T07:47:05.231Z,13.48
2019-03-11T07:49:38.631Z,10.78
2019-03-11T07:52:12.548Z,10.75
2019-03-11T07:54:46.975Z,12.07
2019-03-11T07:57:21.009Z,7.60
2019-03-11T07:59:54.263Z,10.60
2019-03-11T08:02:28.601Z,8.43
2019-03-11T08:05:07.830Z,8.73
2019-03-11T08:07:41.938Z,11.88
2019-03-11T08:10:15.137Z,12.28
2019-03-11T08:12:49.350Z,11.65
2019-03-11T08:15:23.327Z,9.88
2019-03-11T08:17:57.418Z,9.88
2019-03-11T08:20:30.272Z,12.37
2019-03-11T08:23:04.274Z,10.40
2019-03-11T08:25:37.993Z,11.33
2019-03-11T08:28:12.080Z,13.60
2019-03-11T08:30:46.323Z,13.28
2019-03-11T08:33:20.127Z,12.10
2019-03-11T08:35:52.678Z,11.03
2019-03-11T08:38:26.782Z,14.13
2019-03-11T08:41:00.651Z,10.23
2019-03-11T08:43:34.410Z,10.65
2019-03-11T08:46:08.363Z,9.73
2019-03-11T08:48:42.295Z,9.78
2019-03-11T08:51:15.495Z,10.28
2019-03-11T08:53:49.384Z,11.20
2019-03-11T08:56:22.868Z,6.05
2019-03-11T08:58:56.335Z,10.18
2019-03-11T09:01:30.183Z,5.92
2019-03-11T09:04:03.826Z,7.78
2019-03-11T09:06:37.606Z,8.38
2019-03-11T09:09:14.195Z,9.08
2019-03-11T09:11:47.876Z,8.70
2019-03-11T09:14:22.167Z,14.75
2019-03-11T09:16:56.741Z,10.05
2019-03-11T09:19:30.259Z,7.20
2019-03-11T09:22:03.734Z,9.00
2019-03-11T09:24:37.494Z,9.13
2019-03-11T09:27:10.590Z,6.87
2019-03-11T09:29:44.035Z,9.50
2019-03-11T09:32:19.443Z,10.75
2019-03-11T09:34:53.641Z,8.55
2019-03-11T09:37:27.348Z,10.82
2019-03-11T09:40:01.446Z,10.30
2019-03-11T09:42:34.767Z,7.28
2019-03-11T09:45:09.390Z,13.72
2019-03-11T09:47:43.287Z,10.78
2019-03-11T09:50:16.572Z,9.45
2019-03-11T09:52:50.338Z,7.40
2019-03-11T09:55:23.808Z,10.35
2019-03-11T09:57:57.284Z,6.22
2019-03-11T10:00:30.107Z,7.35
2019-03-11T10:03:04.749Z,6.67
2019-03-11T10:05:38.807Z,7.08
2019-03-11T10:08:12.480Z,13.45
2019-03-11T10:10:46.424Z,6.83
2019-03-11T10:13:20.461Z,5.42
2019-03-11T10:15:53.960Z,6.37
2019-03-11T10:18:27.864Z,7.40
2019-03-11T10:21:01.444Z,9.45
2019-03-11T10:23:35.369Z,8.65
2019-03-11T10:26:08.854Z,6.53
2019-03-11T10:28:42.571Z,7.25
2019-03-11T10:31:16.595Z,4.70
2019-03-11T10:33:50.293Z,9.50
2019-03-11T10:36:24.107Z,7.72
2019-03-11T10:38:57.780Z,5.03
2019-03-11T10:41:31.375Z,5.72
2019-03-11T10:44:04.983Z,7.45
2019-03-11T10:46:38.476Z,11.20
2019-03-11T10:49:12.635Z,7.08
2019-03-11T10:51:46.332Z,8.58
2019-03-11T10:54:19.960Z,9.25
2019-03-11T10:56:53.926Z,7.20
2019-03-11T10:59:27.532Z,9.38
2019-03-11T11:02:00.713Z,6.35
2019-03-11T11:04:34.625Z,5.87
2019-03-11T11:07:08.114Z,6.03
2019-03-11T11:09:41.729Z,6.65
2019-03-11T11:12:15.593Z,6.33
2019-03-11T11:14:49.919Z,12.28
2019-03-11T11:17:23.972Z,6.85
2019-03-11T11:20:03.214Z,4.60
2019-03-11T11:22:33.047Z,10.88
2019-03-11T11:25:07.846Z,4.30
2019-03-11T11:27:41.777Z,7.08
2019-03-11T11:30:21.805Z,5.58
2019-03-11T11:32:57.150Z,6.00
2019-03-11T11:35:31.057Z,6.62
2019-03-11T11:38:04.974Z,8.13
2019-03-11T11:40:38.030Z,5.17
2019-03-11T11:43:12.066Z,7.92
2019-03-11T11:45:45.678Z,6.17
2019-03-11T11:48:19.332Z,6.40
2019-03-11T11:50:53.545Z,8.73
2019-03-11T11:53:27.236Z,4.90
2019-03-11T11:56:01.239Z,4.35
2019-03-11T11:58:35.011Z,7.50
2019-03-11T12:01:08.767Z,9.40
2019-03-11T12:03:42.882Z,11.08
2019-03-11T12:06:16.576Z,7.60
2019-03-11T12:08:50.653Z,7.67
2019-03-11T12:11:24.655Z,7.37
2019-03-11T12:13:58.774Z,8.53
2019-03-11T12:16:32.909Z,12.03
2019-03-11T12:19:07.019Z,9.88
2019-03-11T12:21:40.444Z,6.00
2019-03-11T12:24:14.223Z,6.15
2019-03-11T12:26:48.174Z,9.80
2019-03-11T12:29:21.330Z,7.70
2019-03-11T12:31:55.301Z,7.97
2019-03-11T12:34:28.547Z,7.67
2019-03-11T12:37:02.111Z,8.85
2019-03-11T12:39:36.244Z,9.00
2019-03-11T12:42:09.595Z,6.60
2019-03-11T12:44:43.114Z,9.30
2019-03-11T12:47:17.864Z,8.60
2019-03-11T12:49:51.497Z,9.98
2019-03-11T12:52:25.516Z,10.10
2019-03-11T12:54:59.697Z,9.05
2019-03-11T12:57:33.541Z,10.25
2019-03-11T13:00:08.182Z,10.45
2019-03-11T13:02:41.780Z,13.25
2019-03-11T13:05:14.641Z,12.15
2019-03-11T13:07:49.019Z,13.00
2019-03-11T13:10:22.702Z,9.25
2019-03-11T13:12:56.904Z,10.08
2019-03-11T13:15:30.678Z,9.98
2019-03-11T13:18:47.461Z,9.78
2019-03-11T13:21:35.119Z,13.45
2019-03-11T13:24:09.782Z,11.45
2019-03-11T13:26:43.471Z,11.12
2019-03-11T13:29:17.419Z,13.22
2019-03-11T13:31:51.695Z,10.58
2019-03-11T13:34:26.023Z,14.03
2019-03-11T13:36:59.762Z,17.02
2019-03-11T13:39:34.030Z,11.22
2019-03-11T13:42:07.842Z,11.93
2019-03-11T13:44:41.956Z,10.65
2019-03-11T13:47:15.728Z,10.20
2019-03-11T13:49:49.474Z,11.15
2019-03-11T13:52:23.032Z,9.75
2019-03-11T13:55:09.339Z,10.85
2019-03-11T13:57:32.828Z,6.28
2019-03-11T14:00:05.562Z,3.65
2019-03-11T14:02:39.462Z,4.97
2019-03-11T14:05:12.679Z,3.35
2019-03-11T14:07:46.893Z,2.25
2019-03-11T14:10:20.891Z,1.52
2019-03-11T14:12:54.499Z,2.47
2019-03-11T14:15:27.985Z,4.12
2019-03-11T14:18:01.501Z,3.47
2019-03-11T14:20:35.617Z,3.77
2019-03-11T14:23:08.713Z,4.12
2019-03-11T14:25:42.914Z,4.62
2019-03-11T14:28:16.937Z,5.53
2019-03-11T14:30:51.067Z,4.40
2019-03-11T14:33:25.333Z,4.33
2019-03-11T14:35:59.182Z,6.17
2019-03-11T14:38:32.810Z,4.67
2019-03-11T14:41:06.742Z,9.28
2019-03-11T14:43:42.131Z,7.15
2019-03-11T14:46:16.121Z,6.67
2019-03-11T14:48:50.227Z,7.53
2019-03-11T14:51:24.060Z,10.25
2019-03-11T14:53:58.635Z,12.95
2019-03-11T14:56:32.811Z,13.80
2019-03-11T14:59:06.149Z,14.65
2019-03-11T15:01:39.887Z,18.70
2019-03-11T15:04:13.641Z,18.77
2019-03-11T15:06:47.427Z,16.90
2019-03-11T15:09:21.216Z,16.12
2019-03-11T15:11:55.666Z,10.90
2019-03-11T15:14:29.897Z,11.93
2019-03-11T15:17:04.008Z,7.95
2019-03-11T15:19:37.888Z,8.03
2019-03-11T15:22:11.250Z,6.15
2019-03-11T15:24:44.707Z,6.85
2019-03-11T15:27:18.747Z,5.70
2019-03-11T15:29:51.905Z,5.60
2019-03-11T15:32:26.152Z,4.50
2019-03-11T15:35:00.365Z,4.58
2019-03-11T15:37:33.921Z,7.17
2019-03-11T15:40:07.036Z,5.42
2019-03-11T15:42:41.422Z,8.40
2019-03-11T15:45:16.181Z,13.03
2019-03-11T15:47:50.534Z,7.90
2019-03-11T15:50:26.636Z,5.28
2019-03-11T15:53:00.600Z,7.20
2019-03-11T15:55:34.749Z,6.40
2019-03-11T15:58:08.508Z,8.15
2019-03-11T16:00:42.037Z,6.15
2019-03-11T16:03:16.172Z,9.35
2019-03-11T16:05:50.166Z,7.08
2019-03-11T16:08:23.711Z,8.65
2019-03-11T16:10:57.351Z,6.42
2019-03-11T16:13:30.849Z,8.43
2019-03-11T16:16:04.108Z,10.55
2019-03-11T16:18:38.328Z,10.05
2019-03-11T16:21:12.390Z,8.20
2019-03-11T16:23:45.900Z,4.67
2019-03-11T16:26:19.402Z,3.58
2019-03-11T16:28:53.501Z,2.87
2019-03-11T16:31:27.408Z,5.37
2019-03-11T16:34:01.017Z,3.02
2019-03-11T16:36:35.041Z,2.55
2019-03-11T16:39:10.380Z,3.42
2019-03-11T16:41:43.863Z,5.30
2019-03-11T16:44:17.777Z,3.00
2019-03-11T16:46:51.903Z,4.05
2019-03-11T16:49:25.157Z,4.10
2019-03-11T16:51:59.090Z,4.85
2019-03-11T16:54:32.693Z,5.25
2019-03-11T16:57:06.082Z,6.45
2019-03-11T16:59:40.082Z,4.78
2019-03-11T17:02:13.745Z,6.37
2019-03-11T17:04:47.695Z,3.67
2019-03-11T17:07:21.822Z,6.22
2019-03-11T17:09:55.637Z,5.30
2019-03-11T17:12:29.678Z,10.00
2019-03-11T17:15:03.599Z,10.60
2019-03-11T17:17:38.012Z,10.13
2019-03-11T17:20:13.251Z,10.28
2019-03-11T17:22:46.845Z,7.78
2019-03-11T17:25:21.085Z,13.83
2019-03-11T17:27:54.474Z,9.65
2019-03-11T17:30:27.364Z,14.73
2019-03-11T17:33:01.052Z,10.50
2019-03-11T17:35:37.555Z,14.03
2019-03-11T17:38:11.012Z,10.80
2019-03-11T17:40:45.160Z,16.87
2019-03-11T17:43:19.341Z,14.93
2019-03-11T17:45:52.757Z,12.05
2019-03-11T17:48:26.494Z,20.48
2019-03-11T17:51:00.275Z,18.80
2019-03-11T17:53:34.370Z,20.10
2019-03-11T17:56:08.301Z,20.43
2019-03-11T17:58:41.876Z,22.62
2019-03-11T18:01:15.740Z,21.33
2019-03-11T18:03:49.840Z,22.30
2019-03-11T18:06:22.730Z,28.00
2019-03-11T18:08:56.798Z,25.72
2019-03-11T18:11:30.934Z,27.90
2019-03-11T18:14:04.759Z,30.52
2019-03-11T18:16:38.874Z,26.07
2019-03-11T18:19:12.664Z,28.77
2019-03-11T18:21:46.854Z,20.12
2019-03-11T18:24:21.113Z,19.75
2019-03-11T18:26:55.197Z,18.25
2019-03-11T18:29:29.215Z,16.97
2019-03-11T18:32:03.049Z,16.30
2019-03-11T18:34:38.890Z,16.10
2019-03-11T18:37:12.988Z,10.45
2019-03-11T18:39:46.695Z,11.15
2019-03-11T18:42:25.444Z,8.78
2019-03-11T18:44:55.993Z,8.10
2019-03-11T18:47:29.884Z,8.28
2019-03-11T18:50:04.951Z,6.75
2019-03-11T18:52:38.890Z,7.10
2019-03-11T18:55:13.060Z,5.33
2019-03-11T18:57:46.243Z,7.25
2019-03-11T19:00:21.685Z,6.78
2019-03-11T19:02:55.991Z,6.87
2019-03-11T19:05:29.868Z,10.38
2019-03-11T19:08:03.202Z,8.13
2019-03-11T19:10:37.351Z,8.10
2019-03-11T19:13:09.814Z,6.60
2019-03-11T19:15:42.823Z,8.73
2019-03-11T19:18:16.962Z,6.60
2019-03-11T19:20:48.824Z,9.63
2019-03-11T19:23:22.254Z,6.87
2019-03-11T19:25:54.650Z,10.55
2019-03-11T19:28:27.487Z,11.28
2019-03-11T19:31:00.649Z,9.58
2019-03-11T19:33:34.027Z,10.40
2019-03-11T19:36:06.543Z,10.65
2019-03-11T19:38:38.989Z,11.80
2019-03-11T19:41:11.847Z,11.65
2019-03-11T19:43:44.993Z,17.65
2019-03-11T19:46:18.530Z,20.57
2019-03-11T19:48:51.588Z,18.42
2019-03-11T19:51:25.172Z,16.50
2019-03-11T19:53:57.576Z,19.65
2019-03-11T19:56:32.106Z,14.93
2019-03-11T19:59:05.671Z,17.55
2019-03-11T20:01:39.329Z,18.77
2019-03-11T20:04:13.023Z,20.92
2019-03-11T20:06:45.473Z,18.30
2019-03-11T20:09:18.459Z,15.03
2019-03-11T20:11:53.943Z,17.42
2019-03-11T20:14:26.603Z,20.08
2019-03-11T20:17:00.631Z,19.62
2019-03-11T20:19:36.720Z,17.82
2019-03-11T20:22:09.204Z,16.97
2019-03-11T20:24:41.855Z,21.68
2019-03-11T20:27:15.337Z,23.22
2019-03-11T20:29:48.919Z,21.30
2019-03-11T20:32:25.943Z,21.35
2019-03-11T20:34:58.777Z,19.52
2019-03-11T20:37:31.440Z,20.70
2019-03-11T20:40:03.392Z,19.05
2019-03-11T20:42:36.316Z,22.58
2019-03-11T20:45:10.026Z,22.50
2019-03-11T20:47:42.606Z,18.55
2019-03-11T20:50:15.236Z,22.95
2019-03-11T20:52:47.868Z,20.57
2019-03-11T20:55:20.909Z,21.42
2019-03-11T20:57:54.456Z,17.80
2019-03-11T21:00:26.503Z,23.35
2019-03-11T21:03:00.190Z,25.80
2019-03-11T21:05:35.374Z,25.90
2019-03-11T21:08:07.947Z,25.80
2019-03-11T21:10:41.725Z,23.55
2019-03-11T21:13:16.125Z,26.42
2019-03-11T21:15:49.178Z,21.37
2019-03-11T21:18:21.686Z,22.45
2019-03-11T21:21:03.958Z,21.05
2019-03-11T21:23:29.243Z,21.75
2019-03-11T21:26:02.185Z,20.37
2019-03-11T21:28:35.943Z,20.12
2019-03-11T21:31:10.138Z,19.90
2019-03-11T21:33:57.550Z,17.87
2019-03-11T21:36:20.267Z,18.85
2019-03-11T21:38:54.691Z,18.10
2019-03-11T21:41:28.526Z,20.57
2019-03-11T21:44:02.043Z,22.35
2019-03-11T21:46:35.746Z,19.92
2019-03-11T21:49:09.447Z,19.57
2019-03-11T21:51:43.157Z,19.40
2019-03-11T21:54:17.268Z,20.68
2019-03-11T21:56:51.250Z,20.10
2019-03-11T21:59:25.268Z,19.48
2019-03-11T22:01:59.666Z,21.00
2019-03-11T22:04:33.296Z,18.98
2019-03-11T22:07:07.995Z,22.77
2019-03-11T22:09:42.242Z,22.30
2019-03-11T22:12:16.362Z,24.63
2019-03-11T22:14:49.613Z,24.20
2019-03-11T22:17:23.477Z,22.05
2019-03-11T22:19:57.804Z,24.30
2019-03-11T22:22:31.445Z,23.25
2019-03-11T22:25:04.677Z,23.35
2019-03-11T22:27:38.387Z,18.27
2019-03-11T22:30:17.396Z,19.42
2019-03-11T22:32:51.215Z,19.30
2019-03-11T22:35:24.975Z,18.20
2019-03-11T22:37:59.221Z,17.35
2019-03-11T22:40:32.471Z,15.78
2019-03-11T22:43:06.203Z,18.80
2019-03-11T22:45:40.445Z,14.75
2019-03-11T22:48:14.779Z,14.68
2019-03-11T22:50:49.484Z,14.38
2019-03-11T22:53:22.311Z,17.42
2019-03-11T22:55:56.381Z,15.30
2019-03-11T22:58:30.234Z,18.05
2019-03-11T23:01:05.759Z,15.53
2019-03-11T23:03:39.569Z,15.60
2019-03-11T23:06:13.759Z,16.05
2019-03-11T23:08:48.276Z,14.13
2019-03-11T23:11:22.298Z,16.50
2019-03-11T23:13:56.209Z,14.43
2019-03-11T23:16:30.363Z,13.05
2019-03-11T23:19:04.731Z,13.60
2019-03-11T23:21:38.804Z,15.05
2019-03-11T23:24:13.183Z,12.78
2019-03-11T23:26:46.802Z,14.75
2019-03-11T23:29:20.891Z,15.43
2019-03-11T23:31:55.102Z,15.25
2019-03-11T23:34:29.312Z,15.55
2019-03-11T23:37:03.429Z,17.85
2019-03-11T23:39:37.639Z,15.58
2019-03-11T23:42:11.864Z,14.47
2019-03-11T23:44:45.676Z,15.78
2019-03-11T23:47:19.905Z,14.90
2019-03-11T23:49:53.682Z,15.45
2019-03-11T23:52:26.981Z,13.22
2019-03-11T23:55:01.360Z,16.20
2019-03-11T23:57:35.424Z,17.85
